createdAt,value
2019-04-06T00:01:11.789Z,42.87
2019-04-06T00:03:40.258Z,41.40
2019-04-06T00:06:08.730Z,43.70
2019-04-06T00:08:37.212Z,39.10
2019-04-06T00:11:06.127Z,40.93
2019-04-06T00:13:34.568Z,39.63
2019-04-06T00:16:03.183Z,37.00
2019-04-06T00:18:31.633Z,40.60
2019-04-06T00:21:00.110Z,39.30
2019-04-06T00:23:28.562Z,38.17
2019-04-06T00:25:57.101Z,38.90
2019-04-06T00:28:25.670Z,43.67
2019-04-06T00:31:07.917Z,42.53
2019-04-06T00:33:36.481Z,47.80
2019-04-06T00:36:04.988Z,42.73
2019-04-06T00:38:33.945Z,45.17
2019-04-06T00:41:02.522Z,44.00
2019-04-06T00:43:31.009Z,45.90
2019-04-06T00:45:59.476Z,41.77
2019-04-06T00:48:27.961Z,40.90
2019-04-06T00:50:56.441Z,41.80
2019-04-06T00:53:24.892Z,48.20
2019-04-06T00:55:55.765Z,40.80
2019-04-06T00:58:23.562Z,42.67
2019-04-06T01:00:52.389Z,48.47
2019-04-06T01:03:20.862Z,43.33
2019-04-06T01:05:49.325Z,40.50
2019-04-06T01:08:17.824Z,42.63
2019-04-06T01:10:46.271Z,45.03
2019-04-06T01:13:14.713Z,39.73
2019-04-06T01:15:43.203Z,41.47
2019-04-06T01:18:11.755Z,37.80
2019-04-06T01:20:40.216Z,40.50
2019-04-06T01:23:08.776Z,38.10
2019-04-06T01:25:37.307Z,43.10
2019-04-06T01:28:05.796Z,39.83
2019-04-06T01:30:34.282Z,41.97
2019-04-06T01:33:02.735Z,47.40
2019-04-06T01:35:31.188Z,48.43
2019-04-06T01:37:59.671Z,37.87
2019-04-06T01:40:28.159Z,47.03
2019-04-06T01:42:56.638Z,48.20
2019-04-06T01:45:25.119Z,48.97
2019-04-06T01:47:54.044Z,43.90
2019-04-06T01:50:22.525Z,41.57
2019-04-06T01:52:50.958Z,42.77
2019-04-06T01:55:19.418Z,45.57
2019-04-06T01:57:47.863Z,44.90
2019-04-06T02:00:16.580Z,48.40
2019-04-06T02:02:52.752Z,45.40
2019-04-06T02:05:21.231Z,48.03
2019-04-06T02:07:50.276Z,42.90
2019-04-06T02:10:18.897Z,47.43
2019-04-06T02:12:47.444Z,42.73
2019-04-06T02:15:16.033Z,40.87
2019-04-06T02:17:44.507Z,50.97
2019-04-06T02:20:13.018Z,44.17
2019-04-06T02:22:41.506Z,43.73
2019-04-06T02:25:10.047Z,46.67
2019-04-06T02:27:38.497Z,46.67
2019-04-06T02:30:22.242Z,49.17
2019-04-06T02:32:58.105Z,46.07
2019-04-06T02:35:28.289Z,41.83
2019-04-06T02:38:04.407Z,45.00
2019-04-06T02:40:34.546Z,47.03
2019-04-06T02:43:04.667Z,48.30
2019-04-06T02:45:33.443Z,45.17
2019-04-06T02:48:02.078Z,50.80
2019-04-06T02:50:30.603Z,47.10
2019-04-06T02:52:59.375Z,50.13
2019-04-06T02:55:27.933Z,46.77
2019-04-06T02:57:56.658Z,46.83
2019-04-06T03:00:25.311Z,54.87
2019-04-06T03:02:53.880Z,49.93
2019-04-06T03:05:22.441Z,49.63
2019-04-06T03:07:51.085Z,49.13
2019-04-06T03:10:19.700Z,51.33
2019-04-06T03:12:48.388Z,54.03
2019-04-06T03:15:16.883Z,62.40
2019-04-06T03:17:45.388Z,59.03
2019-04-06T03:20:14.677Z,52.17
2019-04-06T03:22:43.178Z,54.50
2019-04-06T03:25:12.010Z,51.77
2019-04-06T03:27:40.719Z,58.93
2019-04-06T03:30:09.859Z,55.53
2019-04-06T03:32:38.349Z,53.70
2019-04-06T03:35:07.132Z,56.37
2019-04-06T03:37:35.801Z,62.00
2019-04-06T03:40:05.465Z,48.77
2019-04-06T03:42:34.040Z,51.73
2019-04-06T03:45:02.879Z,58.43
2019-04-06T03:47:32.175Z,59.97
2019-04-06T03:50:00.674Z,54.00
2019-04-06T03:52:29.608Z,57.93
2019-04-06T03:54:58.425Z,52.03
2019-04-06T03:57:26.905Z,55.00
2019-04-06T03:59:55.603Z,59.30
2019-04-06T04:02:24.455Z,53.40
2019-04-06T04:04:52.955Z,51.23
2019-04-06T04:07:21.443Z,62.53
2019-04-06T04:09:49.991Z,50.50
2019-04-06T04:12:18.651Z,58.27
2019-04-06T04:14:47.254Z,48.70
2019-04-06T04:17:15.679Z,53.07
2019-04-06T04:19:44.165Z,55.50
2019-04-06T04:22:12.844Z,56.27
2019-04-06T04:24:41.517Z,62.00
2019-04-06T04:27:10.042Z,60.70
2019-04-06T04:29:38.531Z,60.50
2019-04-06T04:32:07.212Z,61.50
2019-04-06T04:34:35.674Z,60.70
2019-04-06T04:37:04.322Z,58.00
2019-04-06T04:39:32.870Z,62.27
2019-04-06T04:42:01.563Z,61.40
2019-04-06T04:44:30.515Z,57.87
2019-04-06T04:46:58.978Z,71.47
2019-04-06T04:49:27.594Z,69.37
2019-04-06T04:51:56.068Z,60.13
2019-04-06T04:54:24.728Z,71.03
2019-04-06T04:56:53.255Z,61.23
2019-04-06T04:59:21.726Z,54.67
2019-04-06T05:01:50.342Z,56.07
2019-04-06T05:04:18.819Z,61.97
2019-04-06T05:06:47.290Z,48.33
2019-04-06T05:09:17.385Z,55.37
2019-04-06T05:11:45.921Z,57.67
2019-04-06T05:14:43.197Z,52.97
2019-04-06T05:17:11.684Z,49.50
2019-04-06T05:19:40.158Z,46.80
2019-04-06T05:22:08.716Z,46.63
2019-04-06T05:24:37.521Z,39.33
2019-04-06T05:27:06.142Z,46.13
2019-04-06T05:29:34.622Z,42.40
2019-04-06T05:32:03.087Z,41.80
2019-04-06T05:34:31.558Z,38.80
2019-04-06T05:37:00.016Z,38.40
2019-04-06T05:39:28.488Z,44.33
2019-04-06T05:41:57.043Z,40.00
2019-04-06T05:44:25.536Z,40.77
2019-04-06T05:46:54.782Z,45.03
2019-04-06T05:49:23.985Z,39.20
2019-04-06T05:51:56.739Z,38.60
2019-04-06T05:54:25.485Z,42.67
2019-04-06T05:56:56.311Z,40.20
2019-04-06T05:59:24.599Z,40.53
2019-04-06T06:01:53.364Z,41.73
2019-04-06T06:04:22.021Z,37.97
2019-04-06T06:06:50.582Z,37.97
2019-04-06T06:09:19.053Z,36.50
2019-04-06T06:11:47.668Z,40.60
2019-04-06T06:14:16.257Z,38.97
2019-04-06T06:16:44.841Z,43.43
2019-04-06T06:19:13.309Z,35.00
2019-04-06T06:21:41.752Z,34.67
2019-04-06T06:24:10.366Z,31.90
2019-04-06T06:26:38.866Z,38.30
2019-04-06T06:29:07.349Z,37.80
2019-04-06T06:31:36.211Z,36.47
2019-04-06T06:34:05.303Z,36.50
2019-04-06T06:36:33.856Z,35.67
2019-04-06T06:39:02.415Z,34.63
2019-04-06T06:41:31.025Z,38.20
2019-04-06T06:43:59.684Z,43.10
2019-04-06T06:46:28.266Z,35.97
2019-04-06T06:48:56.736Z,35.37
2019-04-06T06:51:25.358Z,34.43
2019-04-06T06:53:53.860Z,40.37
2019-04-06T06:56:22.339Z,39.93
2019-04-06T06:58:50.941Z,33.50
2019-04-06T07:01:19.607Z,35.80
2019-04-06T07:03:48.172Z,33.33
2019-04-06T07:06:16.624Z,39.77
2019-04-06T07:08:45.160Z,38.50
2019-04-06T07:11:13.635Z,37.63
2019-04-06T07:13:42.195Z,36.20
2019-04-06T07:16:10.745Z,35.00
2019-04-06T07:18:39.264Z,39.93
2019-04-06T07:21:07.997Z,46.77
2019-04-06T07:23:36.573Z,50.10
2019-04-06T07:26:05.186Z,44.77
2019-04-06T07:28:38.158Z,45.13
2019-04-06T07:31:04.105Z,46.60
2019-04-06T07:33:32.738Z,45.30
2019-04-06T07:36:01.232Z,48.97
2019-04-06T07:38:29.712Z,46.03
2019-04-06T07:40:58.227Z,48.87
2019-04-06T07:43:26.708Z,50.67
2019-04-06T07:45:55.169Z,50.67
2019-04-06T07:48:23.626Z,45.63
2019-04-06T07:50:52.115Z,50.17
2019-04-06T07:53:20.622Z,45.33
2019-04-06T07:55:49.067Z,45.70
2019-04-06T07:58:17.526Z,50.30
2019-04-06T08:00:46.195Z,42.17
2019-04-06T08:03:14.804Z,41.17
2019-04-06T08:05:43.303Z,46.07
2019-04-06T08:08:11.790Z,50.43
2019-04-06T08:10:40.357Z,39.30
2019-04-06T08:13:17.619Z,43.77
2019-04-06T08:15:46.354Z,40.43
2019-04-06T08:18:14.852Z,37.13
2019-04-06T08:20:43.385Z,38.73
2019-04-06T08:23:12.004Z,36.50
2019-04-06T08:25:40.547Z,34.23
2019-04-06T08:28:09.293Z,38.73
2019-04-06T08:30:45.464Z,41.40
2019-04-06T08:33:08.194Z,37.73
2019-04-06T08:35:36.853Z,39.60
2019-04-06T08:38:05.427Z,39.10
2019-04-06T08:40:34.154Z,37.80
2019-04-06T08:43:02.843Z,36.90
2019-04-06T08:45:31.332Z,37.17
2019-04-06T08:47:59.876Z,39.90
2019-04-06T08:50:28.350Z,40.53
2019-04-06T08:52:56.841Z,37.70
2019-04-06T08:55:25.719Z,38.53
2019-04-06T08:57:54.472Z,35.67
2019-04-06T09:00:23.074Z,35.63
2019-04-06T09:02:51.836Z,36.80
2019-04-06T09:05:20.330Z,39.60
2019-04-06T09:07:48.876Z,38.57
2019-04-06T09:10:17.519Z,40.90
2019-04-06T09:12:46.285Z,38.73
2019-04-06T09:15:17.013Z,39.27
2019-04-06T09:17:45.828Z,36.00
2019-04-06T09:20:14.604Z,37.60
2019-04-06T09:22:43.093Z,39.77
2019-04-06T09:25:11.720Z,34.60
2019-04-06T09:27:40.177Z,40.50
2019-04-06T09:30:09.221Z,39.73
2019-04-06T09:32:37.868Z,40.00
2019-04-06T09:35:06.479Z,35.07
2019-04-06T09:37:34.927Z,45.40
2019-04-06T09:40:04.847Z,36.67
2019-04-06T09:42:33.368Z,37.27
2019-04-06T09:45:03.764Z,36.23
2019-04-06T09:47:51.972Z,36.73
2019-04-06T09:50:24.795Z,34.77
2019-04-06T09:52:54.944Z,36.37
2019-04-06T09:55:37.292Z,37.50
2019-04-06T09:58:22.535Z,36.67
2019-04-06T10:01:09.053Z,36.03
2019-04-06T10:03:55.442Z,37.77
2019-04-06T10:06:28.327Z,39.37
2019-04-06T10:09:01.411Z,32.53
2019-04-06T10:11:46.869Z,32.90
2019-04-06T10:14:29.494Z,42.07
2019-04-06T10:17:18.271Z,37.10
2019-04-06T10:19:48.410Z,37.07
2019-04-06T10:22:18.631Z,36.27
2019-04-06T10:24:51.695Z,33.90
2019-04-06T10:27:38.047Z,30.47
2019-04-06T10:30:25.797Z,35.60
2019-04-06T10:33:04.962Z,37.17
2019-04-06T10:35:35.412Z,31.70
2019-04-06T10:38:23.932Z,29.27
2019-04-06T10:41:03.365Z,32.10
2019-04-06T10:43:48.951Z,28.83
2019-04-06T10:46:35.540Z,36.17
2019-04-06T10:49:05.718Z,33.90
2019-04-06T10:51:35.852Z,29.57
2019-04-06T10:54:15.207Z,33.80
2019-04-06T10:56:54.585Z,34.43
2019-04-06T10:59:24.774Z,37.80
2019-04-06T11:02:03.653Z,34.43
2019-04-06T11:04:42.845Z,32.50
2019-04-06T11:07:31.175Z,38.07
2019-04-06T11:10:07.074Z,32.70
2019-04-06T11:12:37.209Z,31.20
2019-04-06T11:15:24.875Z,32.07
2019-04-06T11:18:07.024Z,32.80
2019-04-06T11:20:39.905Z,29.20
2019-04-06T11:23:18.904Z,34.33
2019-04-06T11:26:05.253Z,31.40
2019-04-06T11:28:41.267Z,29.17
2019-04-06T11:31:11.400Z,30.40
2019-04-06T11:33:53.488Z,29.13
2019-04-06T11:36:32.922Z,28.10
2019-04-06T11:39:05.806Z,33.00
2019-04-06T11:41:39.017Z,24.30
2019-04-06T11:44:12.119Z,32.73
2019-04-06T11:46:42.327Z,31.23
2019-04-06T11:49:12.467Z,28.37
2019-04-06T11:51:42.600Z,30.50
2019-04-06T11:54:18.225Z,24.70
2019-04-06T11:56:48.592Z,23.80
2019-04-06T11:59:24.996Z,24.27
2019-04-06T12:02:04.073Z,26.53
2019-04-06T12:04:39.868Z,28.53
2019-04-06T12:07:10.214Z,23.30
2019-04-06T12:09:49.259Z,29.90
2019-04-06T12:12:19.397Z,28.70
2019-04-06T12:15:04.934Z,27.10
2019-04-06T12:17:35.528Z,29.33
2019-04-06T12:20:24.344Z,24.57
2019-04-06T12:23:09.460Z,29.23
2019-04-06T12:25:54.845Z,30.00
2019-04-06T12:28:27.658Z,27.33
2019-04-06T12:31:03.538Z,24.60
2019-04-06T12:33:36.579Z,25.43
2019-04-06T12:36:06.849Z,26.43
2019-04-06T12:38:55.200Z,27.07
2019-04-06T12:41:34.537Z,25.27
2019-04-06T12:44:10.572Z,28.50
2019-04-06T12:46:52.962Z,25.67
2019-04-06T12:49:35.302Z,23.27
2019-04-06T12:52:21.643Z,25.03
2019-04-06T12:54:57.595Z,22.93
2019-04-06T12:57:30.440Z,23.53
2019-04-06T13:00:00.660Z,22.70
2019-04-06T13:02:46.664Z,25.63
2019-04-06T13:05:19.451Z,23.93
2019-04-06T13:07:58.514Z,24.37
2019-04-06T13:10:40.483Z,20.53
2019-04-06T13:13:26.746Z,21.80
2019-04-06T13:15:57.152Z,21.53
2019-04-06T13:18:30.340Z,21.00
2019-04-06T13:21:00.476Z,23.10
2019-04-06T13:23:46.760Z,19.80
2019-04-06T13:26:32.216Z,19.37
2019-04-06T13:29:05.146Z,23.23
2019-04-06T13:31:50.578Z,21.37
2019-04-06T13:34:23.130Z,19.53
2019-04-06T13:36:56.245Z,20.53
2019-04-06T13:39:32.467Z,20.37
2019-04-06T13:42:19.299Z,19.57
2019-04-06T13:44:55.322Z,20.47
2019-04-06T13:47:28.366Z,16.57
2019-04-06T13:50:04.780Z,22.10
2019-04-06T13:52:37.656Z,22.63
2019-04-06T13:55:25.466Z,22.00
2019-04-06T13:58:04.416Z,22.67
2019-04-06T14:00:50.774Z,25.17
2019-04-06T14:03:26.879Z,21.10
2019-04-06T14:06:02.768Z,24.03
2019-04-06T14:08:35.701Z,20.23
2019-04-06T14:11:11.506Z,26.40
2019-04-06T14:13:47.699Z,26.00
2019-04-06T14:16:35.969Z,19.63
2019-04-06T14:19:06.070Z,22.83
2019-04-06T14:21:42.232Z,21.93
2019-04-06T14:24:28.480Z,19.77
2019-04-06T14:27:05.061Z,23.70
2019-04-06T14:29:40.931Z,19.83
2019-04-06T14:32:11.117Z,21.83
2019-04-06T14:34:58.030Z,19.77
2019-04-06T14:37:28.484Z,22.30
2019-04-06T14:39:58.838Z,18.63
2019-04-06T14:42:45.214Z,26.20
2019-04-06T14:45:21.350Z,23.70
2019-04-06T14:47:51.465Z,22.60
2019-04-06T14:50:34.192Z,20.70
2019-04-06T14:53:07.236Z,21.40
2019-04-06T14:55:40.167Z,22.70
2019-04-06T14:58:31.403Z,23.13
2019-04-06T15:01:17.726Z,21.33
2019-04-06T15:03:56.891Z,24.10
2019-04-06T15:06:43.701Z,25.03
2019-04-06T15:09:20.183Z,20.30
2019-04-06T15:12:02.176Z,22.10
2019-04-06T15:14:48.435Z,24.03
2019-04-06T15:17:30.635Z,22.70
2019-04-06T15:20:03.766Z,21.10
2019-04-06T15:22:39.571Z,18.63
2019-04-06T15:25:09.713Z,16.30
2019-04-06T15:27:45.505Z,19.10
2019-04-06T15:30:30.956Z,16.37
2019-04-06T15:33:01.055Z,22.40
2019-04-06T15:35:31.248Z,17.43
2019-04-06T15:38:19.639Z,22.10
2019-04-06T15:40:49.767Z,17.23
2019-04-06T15:43:22.515Z,18.23
2019-04-06T15:45:55.299Z,24.07
2019-04-06T15:48:41.880Z,21.23
2019-04-06T15:51:14.783Z,20.73
2019-04-06T15:54:01.471Z,20.60
2019-04-06T15:56:34.671Z,22.00
2019-04-06T15:59:21.083Z,21.17
2019-04-06T16:02:03.443Z,23.57
2019-04-06T16:04:42.950Z,23.60
2019-04-06T16:07:15.453Z,21.90
2019-04-06T16:09:48.306Z,22.67
2019-04-06T16:12:24.973Z,20.80
2019-04-06T16:15:11.738Z,20.47
2019-04-06T16:17:50.785Z,22.50
2019-04-06T16:20:30.139Z,21.37
2019-04-06T16:23:03.346Z,18.73
2019-04-06T16:25:51.394Z,19.03
2019-04-06T16:28:21.527Z,17.17
2019-04-06T16:31:06.611Z,23.13
2019-04-06T16:33:53.234Z,18.50
2019-04-06T16:36:23.389Z,16.00
2019-04-06T16:38:59.316Z,14.40
2019-04-06T16:41:32.086Z,16.03
2019-04-06T16:44:14.255Z,15.97
2019-04-06T16:46:59.484Z,17.07
2019-04-06T16:49:32.266Z,14.60
2019-04-06T16:52:08.106Z,15.20
2019-04-06T16:54:41.209Z,16.97
2019-04-06T16:57:23.848Z,15.93
2019-04-06T16:59:54.098Z,15.67
2019-04-06T17:02:27.125Z,17.30
2019-04-06T17:05:00.150Z,15.57
2019-04-06T17:07:30.249Z,16.10
2019-04-06T17:10:00.416Z,16.60
2019-04-06T17:12:43.940Z,15.90
2019-04-06T17:15:20.526Z,13.83
2019-04-06T17:17:50.662Z,17.20
2019-04-06T17:20:37.172Z,13.07
2019-04-06T17:23:23.789Z,14.23
2019-04-06T17:25:53.934Z,13.00
2019-04-06T17:28:26.979Z,15.07
2019-04-06T17:31:00.219Z,14.87
2019-04-06T17:33:36.347Z,20.70
2019-04-06T17:36:22.529Z,15.97
2019-04-06T17:38:55.644Z,17.53
2019-04-06T17:41:40.720Z,13.87
2019-04-06T17:44:10.953Z,14.30
2019-04-06T17:46:59.133Z,18.23
2019-04-06T17:49:47.296Z,14.67
2019-04-06T17:52:20.732Z,12.87
2019-04-06T17:54:51.377Z,12.20
2019-04-06T17:57:21.628Z,16.93
2019-04-06T17:59:51.750Z,12.97
2019-04-06T18:02:22.223Z,13.00
2019-04-06T18:04:57.914Z,13.60
2019-04-06T18:07:45.798Z,14.27
2019-04-06T18:10:16.078Z,15.67
2019-04-06T18:13:08.859Z,15.70
2019-04-06T18:15:37.365Z,15.70
2019-04-06T18:18:05.895Z,14.43
2019-04-06T18:20:34.448Z,14.40
2019-04-06T18:23:02.972Z,15.30
2019-04-06T18:25:31.474Z,16.87
2019-04-06T18:28:00.530Z,14.27
2019-04-06T18:30:29.437Z,17.97
2019-04-06T18:33:02.911Z,15.10
2019-04-06T18:35:29.961Z,16.57
2019-04-06T18:38:06.020Z,18.43
2019-04-06T18:40:34.516Z,19.20
2019-04-06T18:43:03.205Z,20.33
2019-04-06T18:45:32.250Z,21.20
2019-04-06T18:48:00.957Z,12.87
2019-04-06T18:50:36.696Z,15.20
2019-04-06T18:52:59.781Z,18.90
2019-04-06T18:55:28.298Z,17.90
2019-04-06T18:58:07.879Z,14.47
2019-04-06T19:00:27.432Z,15.03
2019-04-06T19:02:55.951Z,16.73
2019-04-06T19:05:24.460Z,13.63
2019-04-06T19:07:53.028Z,14.47
2019-04-06T19:10:22.038Z,20.20
2019-04-06T19:12:51.085Z,15.40
2019-04-06T19:15:19.789Z,15.17
2019-04-06T19:17:48.450Z,18.43
2019-04-06T19:20:16.994Z,18.93
2019-04-06T19:22:45.448Z,17.23
2019-04-06T19:25:14.456Z,17.53
2019-04-06T19:27:43.209Z,20.70
2019-04-06T19:30:12.737Z,15.93
2019-04-06T19:32:41.386Z,15.57
2019-04-06T19:35:10.567Z,16.20
2019-04-06T19:37:39.483Z,14.10
2019-04-06T19:40:09.017Z,13.83
2019-04-06T19:42:37.569Z,18.57
2019-04-06T19:45:07.836Z,15.40
2019-04-06T19:47:36.406Z,16.10
2019-04-06T19:50:09.557Z,18.50
2019-04-06T19:52:38.105Z,17.83
2019-04-06T19:55:07.604Z,17.53
2019-04-06T19:57:36.192Z,20.63
2019-04-06T20:00:06.837Z,18.33
2019-04-06T20:02:35.423Z,18.20
2019-04-06T20:05:06.534Z,19.83
2019-04-06T20:07:35.552Z,18.40
2019-04-06T20:10:06.467Z,18.30
2019-04-06T20:12:36.019Z,18.70
2019-04-06T20:15:07.498Z,17.93
2019-04-06T20:17:36.127Z,17.30
2019-04-06T20:20:06.676Z,18.63
2019-04-06T20:22:35.321Z,18.30
2019-04-06T20:25:06.060Z,19.43
2019-04-06T20:27:34.524Z,14.07
2019-04-06T20:30:05.614Z,18.80
2019-04-06T20:32:34.423Z,18.13
2019-04-06T20:35:03.358Z,17.40
2019-04-06T20:37:31.893Z,18.83
2019-04-06T20:40:00.468Z,25.07
2019-04-06T20:42:29.211Z,20.73
2019-04-06T20:44:58.102Z,21.00
2019-04-06T20:47:26.750Z,21.27
2019-04-06T20:49:55.243Z,21.00
2019-04-06T20:52:24.145Z,19.93
2019-04-06T20:54:52.679Z,25.00
2019-04-06T20:57:21.161Z,20.37
2019-04-06T20:59:50.156Z,20.00
2019-04-06T21:02:19.273Z,18.37
2019-04-06T21:04:48.319Z,19.27
2019-04-06T21:07:16.983Z,19.30
2019-04-06T21:09:45.495Z,17.40
2019-04-06T21:12:14.011Z,27.53
2019-04-06T21:14:43.629Z,26.13
2019-04-06T21:17:12.283Z,22.20
2019-04-06T21:19:40.775Z,21.53
2019-04-06T21:22:09.219Z,20.50
2019-04-06T21:24:37.847Z,22.50
2019-04-06T21:27:06.650Z,22.20
2019-04-06T21:29:35.226Z,23.27
2019-04-06T21:32:03.735Z,24.27
2019-04-06T21:34:32.738Z,20.30
2019-04-06T21:37:01.966Z,23.37
2019-04-06T21:39:30.733Z,19.70
2019-04-06T21:41:59.696Z,21.27
2019-04-06T21:44:28.299Z,19.00
2019-04-06T21:46:57.419Z,27.17
2019-04-06T21:49:26.590Z,22.43
2019-04-06T21:51:55.286Z,20.20
2019-04-06T21:54:23.993Z,26.47
2019-04-06T21:56:52.516Z,25.40
2019-04-06T21:59:20.983Z,27.40
2019-04-06T22:01:50.255Z,24.23
2019-04-06T22:04:25.984Z,24.00
2019-04-06T22:06:49.082Z,22.20
2019-04-06T22:09:17.617Z,24.20
2019-04-06T22:11:46.245Z,25.40
2019-04-06T22:14:14.880Z,26.73
2019-04-06T22:16:43.367Z,24.60
2019-04-06T22:19:12.064Z,23.67
2019-04-06T22:21:40.596Z,22.17
2019-04-06T22:24:09.531Z,22.43
2019-04-06T22:26:38.352Z,26.63
2019-04-06T22:29:06.816Z,21.80
2019-04-06T22:31:35.875Z,24.37
2019-04-06T22:34:04.909Z,29.20
2019-04-06T22:36:33.465Z,28.87
2019-04-06T22:39:01.954Z,27.50
2019-04-06T22:41:31.068Z,32.13
2019-04-06T22:43:59.628Z,29.60
2019-04-06T22:46:28.101Z,31.13
2019-04-06T22:48:56.566Z,27.57
2019-04-06T22:51:25.010Z,30.37
2019-04-06T22:53:53.513Z,28.63
2019-04-06T22:56:22.596Z,30.00
2019-04-06T22:58:51.601Z,36.33
2019-04-06T23:01:21.947Z,38.07
2019-04-06T23:04:04.145Z,41.20
2019-04-06T23:06:37.209Z,45.10
2019-04-06T23:09:07.915Z,44.23
2019-04-06T23:11:36.650Z,34.80
2019-04-06T23:14:05.327Z,35.80
2019-04-06T23:16:34.141Z,37.03
2019-04-06T23:19:02.730Z,34.60
2019-04-06T23:21:31.659Z,37.70
2019-04-06T23:24:03.065Z,32.73
2019-04-06T23:26:30.691Z,36.13
2019-04-06T23:28:59.611Z,27.57
2019-04-06T23:31:28.128Z,24.90
2019-04-06T23:33:56.570Z,29.73
2019-04-06T23:36:25.056Z,32.97
2019-04-06T23:38:54.067Z,31.93
2019-04-06T23:41:22.795Z,32.90
2019-04-06T23:43:51.775Z,30.13
2019-04-06T23:46:20.353Z,31.60
2019-04-06T23:48:48.799Z,40.90
2019-04-06T23:51:17.295Z,31.63
2019-04-06T23:53:45.743Z,33.60
2019-04-06T23:56:14.894Z,32.07
2019-04-06T23:58:43.397Z,33.53
